sensor_id;sensor_type;location;lat;lon;timestamp;pressure;altitude;pressure_sealevel;temperature;humidity
72438;BME280;60444;43.534;-5.674;2024-03-02T00:00:08;100515.72;;;12.20;100.00
72438;BME280;60444;43.534;-5.674;2024-03-02T00:02:47;100506.22;;;12.13;100.00
72438;BME280;60444;43.534;-5.674;2024-03-02T00:05:14;100503.50;;;12.13;100.00
72438;BME280;60444;43.534;-5.674;2024-03-02T00:07:45;100505.97;;;12.18;100.00
72438;BME280;60444;43.534;-5.674;2024-03-02T00:10:16;100507.69;;;12.19;100.00
72438;BME280;60444;43.534;-5.674;2024-03-02T00:12:46;100448.09;;;11.89;100.00
72438;BME280;60444;43.534;-5.674;2024-03-02T00:15:41;100486.78;;;12.21;100.00
72438;BME280;60444;43.534;-5.674;2024-03-02T00:18:10;100475.72;;;12.10;100.00
72438;BME280;60444;43.534;-5.674;2024-03-02T00:20:37;100477.38;;;12.12;100.00
72438;BME280;60444;43.534;-5.674;2024-03-02T00:23:04;100477.19;;;12.15;100.00
72438;BME280;60444;43.534;-5.674;2024-03-02T00:25:40;100493.28;;;12.18;100.00
72438;BME280;60444;43.534;-5.674;2024-03-02T00:28:13;100451.72;;;12.04;100.00
72438;BME280;60444;43.534;-5.674;2024-03-02T00:30:54;100466.06;;;12.20;100.00
72438;BME280;60444;43.534;-5.674;2024-03-02T00:33:21;100460.13;;;12.13;100.00
72438;BME280;60444;43.534;-5.674;2024-03-02T00:35:48;100446.78;;;12.10;100.00
72438;BME280;60444;43.534;-5.674;2024-03-02T00:38:14;100464.41;;;12.17;100.00
72438;BME280;60444;43.534;-5.674;2024-03-02T00:40:43;100428.25;;;12.03;100.00
72438;BME280;60444;43.534;-5.674;2024-03-02T00:45:55;100438.97;;;12.20;100.00
72438;BME280;60444;43.534;-5.674;2024-03-02T00:48:20;100443.69;;;12.16;100.00
72438;BME280;60444;43.534;-5.674;2024-03-02T00:50:51;100415.38;;;12.06;100.00
72438;BME280;60444;43.534;-5.674;2024-03-02T00:53:22;100428.78;;;12.09;100.00
72438;BME280;60444;43.534;-5.674;2024-03-02T00:55:49;100404.16;;;11.98;100.00
72438;BME280;60444;43.534;-5.674;2024-03-02T00:58:15;100416.94;;;12.10;100.00
72438;BME280;60444;43.534;-5.674;2024-03-02T01:00:41;100413.00;;;12.16;100.00
72438;BME280;60444;43.534;-5.674;2024-03-02T01:03:06;100399.91;;;12.08;100.00
72438;BME280;60444;43.534;-5.674;2024-03-02T01:05:33;100380.72;;;11.97;100.00
72438;BME280;60444;43.534;-5.674;2024-03-02T01:07:59;100398.19;;;12.07;100.00
72438;BME280;60444;43.534;-5.674;2024-03-02T01:10:24;100352.94;;;11.94;100.00
72438;BME280;60444;43.534;-5.674;2024-03-02T01:12:51;100366.59;;;12.06;100.00
72438;BME280;60444;43.534;-5.674;2024-03-02T01:15:17;100380.34;;;12.17;100.00
72438;BME280;60444;43.534;-5.674;2024-03-02T01:17:46;100357.88;;;12.01;100.00
72438;BME280;60444;43.534;-5.674;2024-03-02T01:20:12;100369.19;;;12.08;100.00
72438;BME280;60444;43.534;-5.674;2024-03-02T01:22:37;100357.22;;;12.12;100.00
72438;BME280;60444;43.534;-5.674;2024-03-02T01:25:03;100346.47;;;12.10;100.00
72438;BME280;60444;43.534;-5.674;2024-03-02T01:27:29;100352.88;;;12.09;100.00
72438;BME280;60444;43.534;-5.674;2024-03-02T01:29:55;100319.94;;;12.01;100.00
72438;BME280;60444;43.534;-5.674;2024-03-02T01:32:20;100369.13;;;12.23;100.00
72438;BME280;60444;43.534;-5.674;2024-03-02T01:34:46;100332.22;;;12.07;100.00
72438;BME280;60444;43.534;-5.674;2024-03-02T01:37:11;100350.63;;;12.16;100.00
72438;BME280;60444;43.534;-5.674;2024-03-02T01:39:37;100319.34;;;11.96;100.00
72438;BME280;60444;43.534;-5.674;2024-03-02T01:42:02;100308.41;;;11.98;100.00
72438;BME280;60444;43.534;-5.674;2024-03-02T01:44:28;100344.06;;;12.20;100.00
72438;BME280;60444;43.534;-5.674;2024-03-02T01:46:54;100329.81;;;12.16;100.00
72438;BME280;60444;43.534;-5.674;2024-03-02T01:49:19;100322.66;;;12.15;100.00
72438;BME280;60444;43.534;-5.674;2024-03-02T01:51:45;100332.72;;;12.27;100.00
72438;BME280;60444;43.534;-5.674;2024-03-02T01:54:11;100324.59;;;12.27;100.00
72438;BME280;60444;43.534;-5.674;2024-03-02T01:56:37;100300.78;;;12.18;100.00
72438;BME280;60444;43.534;-5.674;2024-03-02T01:59:02;100314.81;;;12.25;100.00
72438;BME280;60444;43.534;-5.674;2024-03-02T02:01:28;100270.88;;;12.06;100.00
72438;BME280;60444;43.534;-5.674;2024-03-02T02:03:54;100267.94;;;12.09;100.00
72438;BME280;60444;43.534;-5.674;2024-03-02T02:06:19;100276.75;;;12.12;100.00
72438;BME280;60444;43.534;-5.674;2024-03-02T02:08:45;100279.47;;;12.12;100.00
72438;BME280;60444;43.534;-5.674;2024-03-02T02:11:15;100289.41;;;12.26;100.00
72438;BME280;60444;43.534;-5.674;2024-03-02T02:13:41;100240.16;;;12.05;100.00
72438;BME280;60444;43.534;-5.674;2024-03-02T02:16:07;100268.81;;;12.23;100.00
72438;BME280;60444;43.534;-5.674;2024-03-02T02:18:33;100248.84;;;12.24;100.00
72438;BME280;60444;43.534;-5.674;2024-03-02T02:20:59;100256.31;;;12.21;100.00
72438;BME280;60444;43.534;-5.674;2024-03-02T02:23:24;100233.28;;;12.14;100.00
72438;BME280;60444;43.534;-5.674;2024-03-02T02:25:50;100223.41;;;12.13;100.00
72438;BME280;60444;43.534;-5.674;2024-03-02T02:28:15;100211.03;;;12.09;100.00
72438;BME280;60444;43.534;-5.674;2024-03-02T02:30:41;100218.19;;;12.10;100.00
72438;BME280;60444;43.534;-5.674;2024-03-02T02:33:06;100198.53;;;12.06;100.00
72438;BME280;60444;43.534;-5.674;2024-03-02T02:35:32;100189.44;;;12.07;100.00
72438;BME280;60444;43.534;-5.674;2024-03-02T02:37:58;100202.56;;;12.13;100.00
72438;BME280;60444;43.534;-5.674;2024-03-02T02:40:27;100220.09;;;12.22;100.00
72438;BME280;60444;43.534;-5.674;2024-03-02T02:42:56;100196.38;;;12.11;100.00
72438;BME280;60444;43.534;-5.674;2024-03-02T02:45:21;100179.09;;;12.00;100.00
72438;BME280;60444;43.534;-5.674;2024-03-02T02:47:47;100171.63;;;12.03;100.00
72438;BME280;60444;43.534;-5.674;2024-03-02T02:50:12;100189.78;;;12.15;100.00
72438;BME280;60444;43.534;-5.674;2024-03-02T02:52:39;100168.47;;;11.97;100.00
72438;BME280;60444;43.534;-5.674;2024-03-02T02:55:08;100182.94;;;12.10;100.00
72438;BME280;60444;43.534;-5.674;2024-03-02T02:57:35;100179.06;;;12.14;100.00
72438;BME280;60444;43.534;-5.674;2024-03-02T03:00:06;100175.28;;;12.16;100.00
72438;BME280;60444;43.534;-5.674;2024-03-02T03:02:38;100148.28;;;12.01;100.00
72438;BME280;60444;43.534;-5.674;2024-03-02T03:05:05;100170.03;;;12.13;100.00
72438;BME280;60444;43.534;-5.674;2024-03-02T03:07:31;100124.94;;;11.86;100.00
72438;BME280;60444;43.534;-5.674;2024-03-02T03:09:57;100139.88;;;12.05;100.00
72438;BME280;60444;43.534;-5.674;2024-03-02T03:12:24;100134.84;;;11.99;100.00
72438;BME280;60444;43.534;-5.674;2024-03-02T03:14:50;100135.47;;;12.17;100.00
72438;BME280;60444;43.534;-5.674;2024-03-02T03:17:15;100112.66;;;12.07;100.00
72438;BME280;60444;43.534;-5.674;2024-03-02T03:19:42;100121.91;;;12.17;100.00
72438;BME280;60444;43.534;-5.674;2024-03-02T03:22:08;100126.06;;;12.22;100.00
72438;BME280;60444;43.534;-5.674;2024-03-02T03:24:33;100091.34;;;12.15;100.00
72438;BME280;60444;43.534;-5.674;2024-03-02T03:26:59;100095.28;;;12.23;100.00
72438;BME280;60444;43.534;-5.674;2024-03-02T03:29:24;100087.31;;;12.20;100.00
72438;BME280;60444;43.534;-5.674;2024-03-02T03:31:50;100059.50;;;12.04;100.00
72438;BME280;60444;43.534;-5.674;2024-03-02T03:34:16;100065.47;;;12.23;100.00
72438;BME280;60444;43.534;-5.674;2024-03-02T03:36:42;100038.97;;;12.14;100.00
72438;BME280;60444;43.534;-5.674;2024-03-02T03:39:08;100030.59;;;12.17;100.00
72438;BME280;60444;43.534;-5.674;2024-03-02T03:41:34;100027.56;;;12.09;100.00
72438;BME280;60444;43.534;-5.674;2024-03-02T03:43:59;99999.34;;;11.99;100.00
72438;BME280;60444;43.534;-5.674;2024-03-02T03:46:25;100020.53;;;12.19;100.00
72438;BME280;60444;43.534;-5.674;2024-03-02T03:48:50;100023.03;;;12.22;100.00
72438;BME280;60444;43.534;-5.674;2024-03-02T03:51:16;99980.25;;;12.01;100.00
72438;BME280;60444;43.534;-5.674;2024-03-02T03:53:41;99963.66;;;11.93;100.00
72438;BME280;60444;43.534;-5.674;2024-03-02T03:56:07;99981.16;;;12.14;100.00
72438;BME280;60444;43.534;-5.674;2024-03-02T03:58:32;99989.44;;;12.25;100.00
72438;BME280;60444;43.534;-5.674;2024-03-02T04:01:00;99976.72;;;12.13;100.00
72438;BME280;60444;43.534;-5.674;2024-03-02T04:03:26;99956.88;;;12.12;100.00
72438;BME280;60444;43.534;-5.674;2024-03-02T04:05:52;99955.88;;;12.13;100.00
72438;BME280;60444;43.534;-5.674;2024-03-02T04:08:17;99964.25;;;12.23;100.00
72438;BME280;60444;43.534;-5.674;2024-03-02T04:10:43;99938.00;;;12.11;100.00
72438;BME280;60444;43.534;-5.674;2024-03-02T04:13:08;99942.56;;;12.10;100.00
72438;BME280;60444;43.534;-5.674;2024-03-02T04:15:34;99927.56;;;12.05;100.00
72438;BME280;60444;43.534;-5.674;2024-03-02T04:18:00;99925.22;;;12.13;100.00
72438;BME280;60444;43.534;-5.674;2024-03-02T04:20:25;99923.69;;;12.21;100.00
72438;BME280;60444;43.534;-5.674;2024-03-02T04:22:51;99930.44;;;12.28;100.00
72438;BME280;60444;43.534;-5.674;2024-03-02T04:25:17;99914.16;;;12.16;100.00
72438;BME280;60444;43.534;-5.674;2024-03-02T04:27:42;99900.91;;;12.11;100.00
72438;BME280;60444;43.534;-5.674;2024-03-02T04:30:08;99893.22;;;12.18;100.00
72438;BME280;60444;43.534;-5.674;2024-03-02T04:32:33;99884.22;;;12.05;100.00
72438;BME280;60444;43.534;-5.674;2024-03-02T04:34:59;99892.69;;;12.13;100.00
72438;BME280;60444;43.534;-5.674;2024-03-02T04:37:24;99892.88;;;12.22;100.00
72438;BME280;60444;43.534;-5.674;2024-03-02T04:39:50;99878.78;;;12.17;100.00
72438;BME280;60444;43.534;-5.674;2024-03-02T04:42:15;99880.09;;;12.24;100.00
72438;BME280;60444;43.534;-5.674;2024-03-02T04:44:41;99872.72;;;12.26;100.00
72438;BME280;60444;43.534;-5.674;2024-03-02T04:47:07;99878.16;;;12.26;100.00
72438;BME280;60444;43.534;-5.674;2024-03-02T04:49:32;99849.41;;;12.11;100.00
72438;BME280;60444;43.534;-5.674;2024-03-02T04:51:58;99868.41;;;12.24;100.00
72438;BME280;60444;43.534;-5.674;2024-03-02T04:54:24;99869.25;;;12.24;100.00
72438;BME280;60444;43.534;-5.674;2024-03-02T04:56:49;99864.06;;;12.21;100.00
72438;BME280;60444;43.534;-5.674;2024-03-02T04:59:18;99864.81;;;12.23;100.00
72438;BME280;60444;43.534;-5.674;2024-03-02T05:01:44;99832.28;;;12.23;100.00
72438;BME280;60444;43.534;-5.674;2024-03-02T05:04:10;99832.16;;;12.25;100.00
72438;BME280;60444;43.534;-5.674;2024-03-02T05:06:39;99826.31;;;12.31;100.00
72438;BME280;60444;43.534;-5.674;2024-03-02T05:09:10;99823.38;;;12.34;100.00
72438;BME280;60444;43.534;-5.674;2024-03-02T05:11:36;99772.41;;;12.14;100.00
72438;BME280;60444;43.534;-5.674;2024-03-02T05:14:07;99797.00;;;12.36;100.00
72438;BME280;60444;43.534;-5.674;2024-03-02T05:16:36;99762.22;;;12.17;100.00
72438;BME280;60444;43.534;-5.674;2024-03-02T05:19:05;99773.28;;;12.27;100.00
72438;BME280;60444;43.534;-5.674;2024-03-02T05:21:34;99749.31;;;12.21;100.00
72438;BME280;60444;43.534;-5.674;2024-03-02T05:24:00;99749.94;;;12.24;100.00
72438;BME280;60444;43.534;-5.674;2024-03-02T05:26:25;99748.75;;;12.28;100.00
72438;BME280;60444;43.534;-5.674;2024-03-02T05:28:51;99757.53;;;12.32;100.00
72438;BME280;60444;43.534;-5.674;2024-03-02T05:31:16;99719.28;;;12.11;100.00
72438;BME280;60444;43.534;-5.674;2024-03-02T05:33:42;99735.84;;;12.32;100.00
72438;BME280;60444;43.534;-5.674;2024-03-02T05:36:08;99694.69;;;12.14;100.00
72438;BME280;60444;43.534;-5.674;2024-03-02T05:38:37;99681.31;;;12.24;100.00
72438;BME280;60444;43.534;-5.674;2024-03-02T05:41:03;99678.06;;;12.19;100.00
72438;BME280;60444;43.534;-5.674;2024-03-02T05:43:28;99707.75;;;12.33;100.00
72438;BME280;60444;43.534;-5.674;2024-03-02T05:45:54;99699.28;;;12.37;100.00
72438;BME280;60444;43.534;-5.674;2024-03-02T05:48:20;99701.59;;;12.31;100.00
72438;BME280;60444;43.534;-5.674;2024-03-02T05:50:48;99673.53;;;12.19;100.00
72438;BME280;60444;43.534;-5.674;2024-03-02T05:53:13;99674.03;;;12.24;100.00
72438;BME280;60444;43.534;-5.674;2024-03-02T05:55:40;99695.06;;;12.33;100.00
72438;BME280;60444;43.534;-5.674;2024-03-02T05:58:06;99687.47;;;12.26;100.00
72438;BME280;60444;43.534;-5.674;2024-03-02T06:00:31;99696.91;;;12.33;100.00
72438;BME280;60444;43.534;-5.674;2024-03-02T06:02:57;99678.69;;;12.22;100.00
72438;BME280;60444;43.534;-5.674;2024-03-02T06:05:23;99708.03;;;12.41;100.00
72438;BME280;60444;43.534;-5.674;2024-03-02T06:07:49;99684.88;;;12.24;100.00
72438;BME280;60444;43.534;-5.674;2024-03-02T06:10:15;99660.09;;;12.18;100.00
72438;BME280;60444;43.534;-5.674;2024-03-02T06:12:41;99680.34;;;12.25;100.00
72438;BME280;60444;43.534;-5.674;2024-03-02T06:15:06;99699.50;;;12.34;100.00
72438;BME280;60444;43.534;-5.674;2024-03-02T06:17:32;99693.09;;;12.35;100.00
72438;BME280;60444;43.534;-5.674;2024-03-02T06:19:58;99668.41;;;12.27;100.00
72438;BME280;60444;43.534;-5.674;2024-03-02T06:22:23;99646.75;;;12.15;100.00
72438;BME280;60444;43.534;-5.674;2024-03-02T06:24:50;99649.75;;;12.23;100.00
72438;BME280;60444;43.534;-5.674;2024-03-02T06:27:16;99661.13;;;12.28;100.00
72438;BME280;60444;43.534;-5.674;2024-03-02T06:29:42;99631.91;;;12.08;100.00
72438;BME280;60444;43.534;-5.674;2024-03-02T06:32:07;99642.50;;;12.23;100.00
72438;BME280;60444;43.534;-5.674;2024-03-02T06:34:33;99610.47;;;12.05;100.00
72438;BME280;60444;43.534;-5.674;2024-03-02T06:36:58;99638.78;;;12.24;100.00
72438;BME280;60444;43.534;-5.674;2024-03-02T06:39:24;99600.06;;;11.99;100.00
72438;BME280;60444;43.534;-5.674;2024-03-02T06:41:51;99630.03;;;12.21;100.00
72438;BME280;60444;43.534;-5.674;2024-03-02T06:44:20;99626.78;;;12.16;100.00
72438;BME280;60444;43.534;-5.674;2024-03-02T06:46:46;99620.44;;;12.04;100.00
72438;BME280;60444;43.534;-5.674;2024-03-02T06:49:12;99628.47;;;12.06;100.00
72438;BME280;60444;43.534;-5.674;2024-03-02T06:51:37;99627.28;;;11.97;100.00
72438;BME280;60444;43.534;-5.674;2024-03-02T06:54:03;99667.38;;;12.05;100.00
72438;BME280;60444;43.534;-5.674;2024-03-02T06:56:28;99686.47;;;12.03;100.00
72438;BME280;60444;43.534;-5.674;2024-03-02T06:58:54;99679.31;;;11.90;100.00
72438;BME280;60444;43.534;-5.674;2024-03-02T07:01:19;99695.94;;;11.85;100.00
72438;BME280;60444;43.534;-5.674;2024-03-02T07:03:47;99707.19;;;11.67;100.00
72438;BME280;60444;43.534;-5.674;2024-03-02T07:06:13;99781.22;;;11.67;100.00
72438;BME280;60444;43.534;-5.674;2024-03-02T07:08:39;99743.31;;;10.89;100.00
72438;BME280;60444;43.534;-5.674;2024-03-02T07:11:04;99805.97;;;10.83;100.00
72438;BME280;60444;43.534;-5.674;2024-03-02T07:13:30;99799.88;;;10.38;100.00
72438;BME280;60444;43.534;-5.674;2024-03-02T07:15:55;99852.91;;;9.83;100.00
72438;BME280;60444;43.534;-5.674;2024-03-02T07:18:36;99895.94;;;9.86;100.00
72438;BME280;60444;43.534;-5.674;2024-03-02T07:21:10;99918.00;;;9.49;100.00
72438;BME280;60444;43.534;-5.674;2024-03-02T07:23:36;99895.56;;;9.17;100.00
72438;BME280;60444;43.534;-5.674;2024-03-02T07:26:02;99925.88;;;9.22;100.00
72438;BME280;60444;43.534;-5.674;2024-03-02T07:28:28;99954.31;;;9.12;100.00
72438;BME280;60444;43.534;-5.674;2024-03-02T07:31:03;99914.56;;;9.00;100.00
72438;BME280;60444;43.534;-5.674;2024-03-02T07:33:30;99940.31;;;9.06;100.00
72438;BME280;60444;43.534;-5.674;2024-03-02T07:35:57;99925.00;;;8.91;100.00
72438;BME280;60444;43.534;-5.674;2024-03-02T07:38:24;99924.81;;;8.94;100.00
72438;BME280;60444;43.534;-5.674;2024-03-02T07:40:50;99926.84;;;9.06;100.00
72438;BME280;60444;43.534;-5.674;2024-03-02T07:43:19;99940.75;;;9.14;100.00
72438;BME280;60444;43.534;-5.674;2024-03-02T07:45:45;99945.19;;;9.15;100.00
72438;BME280;60444;43.534;-5.674;2024-03-02T07:48:11;99953.72;;;9.23;100.00
72438;BME280;60444;43.534;-5.674;2024-03-02T07:50:37;99975.66;;;9.17;100.00
72438;BME280;60444;43.534;-5.674;2024-03-02T07:53:04;99992.44;;;9.37;100.00
72438;BME280;60444;43.534;-5.674;2024-03-02T07:55:30;99992.00;;;9.45;100.00
72438;BME280;60444;43.534;-5.674;2024-03-02T07:57:57;99996.59;;;9.59;100.00
72438;BME280;60444;43.534;-5.674;2024-03-02T08:00:23;99997.91;;;9.67;100.00
72438;BME280;60444;43.534;-5.674;2024-03-02T08:02:50;100000.06;;;9.76;100.00
72438;BME280;60444;43.534;-5.674;2024-03-02T08:05:16;99984.66;;;9.63;100.00
72438;BME280;60444;43.534;-5.674;2024-03-02T08:07:45;99979.84;;;9.68;100.00
72438;BME280;60444;43.534;-5.674;2024-03-02T08:10:11;99987.41;;;9.47;100.00
72438;BME280;60444;43.534;-5.674;2024-03-02T08:12:37;99987.91;;;9.54;100.00
72438;BME280;60444;43.534;-5.674;2024-03-02T08:15:03;99977.19;;;9.52;100.00
72438;BME280;60444;43.534;-5.674;2024-03-02T08:17:29;99971.44;;;9.58;100.00
72438;BME280;60444;43.534;-5.674;2024-03-02T08:19:56;99965.91;;;9.75;100.00
72438;BME280;60444;43.534;-5.674;2024-03-02T08:22:23;99960.81;;;9.71;100.00
72438;BME280;60444;43.534;-5.674;2024-03-02T08:24:51;99975.22;;;9.85;100.00
72438;BME280;60444;43.534;-5.674;2024-03-02T08:27:17;99963.34;;;9.88;100.00
72438;BME280;60444;43.534;-5.674;2024-03-02T08:29:43;99972.56;;;9.99;100.00
72438;BME280;60444;43.534;-5.674;2024-03-02T08:32:08;99957.69;;;9.92;100.00
72438;BME280;60444;43.534;-5.674;2024-03-02T08:34:33;99979.00;;;10.12;100.00
72438;BME280;60444;43.534;-5.674;2024-03-02T08:37:01;99969.94;;;10.13;100.00
72438;BME280;60444;43.534;-5.674;2024-03-02T08:39:27;99992.34;;;10.29;100.00
72438;BME280;60444;43.534;-5.674;2024-03-02T08:41:53;99953.34;;;10.19;100.00
72438;BME280;60444;43.534;-5.674;2024-03-02T08:44:19;99984.34;;;10.28;100.00
72438;BME280;60444;43.534;-5.674;2024-03-02T08:46:45;99970.72;;;10.29;100.00
72438;BME280;60444;43.534;-5.674;2024-03-02T08:49:11;99979.81;;;10.28;100.00
72438;BME280;60444;43.534;-5.674;2024-03-02T08:51:36;99979.25;;;10.37;100.00
72438;BME280;60444;43.534;-5.674;2024-03-02T08:54:02;100000.59;;;10.42;100.00
72438;BME280;60444;43.534;-5.674;2024-03-02T08:56:30;100009.28;;;10.47;100.00
72438;BME280;60444;43.534;-5.674;2024-03-02T08:58:55;99989.38;;;10.34;100.00
72438;BME280;60444;43.534;-5.674;2024-03-02T09:01:21;99994.03;;;10.46;100.00
72438;BME280;60444;43.534;-5.674;2024-03-02T09:03:47;100012.38;;;10.55;100.00
72438;BME280;60444;43.534;-5.674;2024-03-02T09:06:14;100011.03;;;10.62;100.00
72438;BME280;60444;43.534;-5.674;2024-03-02T09:08:42;99982.53;;;10.42;100.00
72438;BME280;60444;43.534;-5.674;2024-03-02T09:11:09;100015.41;;;10.65;100.00
72438;BME280;60444;43.534;-5.674;2024-03-02T09:13:36;100001.09;;;10.63;100.00
72438;BME280;60444;43.534;-5.674;2024-03-02T09:16:02;99972.19;;;10.49;100.00
72438;BME280;60444;43.534;-5.674;2024-03-02T09:18:28;99997.72;;;10.59;100.00
72438;BME280;60444;43.534;-5.674;2024-03-02T09:20:54;99998.41;;;10.63;100.00
72438;BME280;60444;43.534;-5.674;2024-03-02T09:23:20;100002.72;;;10.65;100.00
72438;BME280;60444;43.534;-5.674;2024-03-02T09:25:46;99987.75;;;10.45;100.00
72438;BME280;60444;43.534;-5.674;2024-03-02T09:28:12;99990.34;;;10.47;100.00
72438;BME280;60444;43.534;-5.674;2024-03-02T09:30:37;99958.97;;;10.30;100.00
72438;BME280;60444;43.534;-5.674;2024-03-02T09:33:03;100012.88;;;10.62;100.00
72438;BME280;60444;43.534;-5.674;2024-03-02T09:35:29;100027.78;;;10.69;100.00
72438;BME280;60444;43.534;-5.674;2024-03-02T09:37:55;99988.53;;;10.62;100.00
72438;BME280;60444;43.534;-5.674;2024-03-02T09:40:24;99986.44;;;10.67;100.00
72438;BME280;60444;43.534;-5.674;2024-03-02T09:42:49;99973.56;;;10.56;100.00
72438;BME280;60444;43.534;-5.674;2024-03-02T09:45:26;100010.38;;;10.73;100.00
72438;BME280;60444;43.534;-5.674;2024-03-02T09:47:52;100019.66;;;10.83;100.00
72438;BME280;60444;43.534;-5.674;2024-03-02T09:50:18;100007.47;;;10.62;100.00
72438;BME280;60444;43.534;-5.674;2024-03-02T09:52:44;100016.34;;;10.64;100.00
72438;BME280;60444;43.534;-5.674;2024-03-02T09:55:13;100022.38;;;10.69;100.00
72438;BME280;60444;43.534;-5.674;2024-03-02T09:57:41;100052.88;;;10.71;100.00
72438;BME280;60444;43.534;-5.674;2024-03-02T10:00:08;100031.97;;;10.44;100.00
72438;BME280;60444;43.534;-5.674;2024-03-02T10:02:33;100031.75;;;10.33;100.00
72438;BME280;60444;43.534;-5.674;2024-03-02T10:04:59;100024.19;;;10.24;100.00
72438;BME280;60444;43.534;-5.674;2024-03-02T10:07:25;100039.84;;;10.19;100.00
72438;BME280;60444;43.534;-5.674;2024-03-02T10:09:50;100030.88;;;10.33;100.00
72438;BME280;60444;43.534;-5.674;2024-03-02T10:12:17;100018.25;;;10.33;100.00
72438;BME280;60444;43.534;-5.674;2024-03-02T10:14:44;99989.44;;;10.18;100.00
72438;BME280;60444;43.534;-5.674;2024-03-02T10:17:13;99996.63;;;10.48;100.00
72438;BME280;60444;43.534;-5.674;2024-03-02T10:19:41;99994.22;;;10.43;100.00
72438;BME280;60444;43.534;-5.674;2024-03-02T10:22:10;100007.06;;;10.39;100.00
72438;BME280;60444;43.534;-5.674;2024-03-02T10:24:39;100029.19;;;10.60;100.00
72438;BME280;60444;43.534;-5.674;2024-03-02T10:27:26;100024.75;;;10.59;100.00
72438;BME280;60444;43.534;-5.674;2024-03-02T10:29:52;100033.75;;;10.60;100.00
72438;BME280;60444;43.534;-5.674;2024-03-02T10:32:17;100041.56;;;10.64;100.00
72438;BME280;60444;43.534;-5.674;2024-03-02T10:34:44;100053.47;;;10.76;100.00
72438;BME280;60444;43.534;-5.674;2024-03-02T10:37:11;100040.00;;;10.60;100.00
72438;BME280;60444;43.534;-5.674;2024-03-02T10:39:37;100048.03;;;10.62;100.00
72438;BME280;60444;43.534;-5.674;2024-03-02T10:42:07;100059.63;;;10.64;100.00
72438;BME280;60444;43.534;-5.674;2024-03-02T10:44:33;100066.78;;;10.65;100.00
72438;BME280;60444;43.534;-5.674;2024-03-02T10:47:03;100078.31;;;10.82;100.00
72438;BME280;60444;43.534;-5.674;2024-03-02T10:49:30;100075.69;;;10.81;100.00
72438;BME280;60444;43.534;-5.674;2024-03-02T10:51:58;100050.38;;;10.68;100.00
72438;BME280;60444;43.534;-5.674;2024-03-02T10:54:24;100072.69;;;10.85;100.00
72438;BME280;60444;43.534;-5.674;2024-03-02T10:56:53;100068.38;;;10.83;100.00
72438;BME280;60444;43.534;-5.674;2024-03-02T10:59:35;100080.91;;;10.84;100.00
72438;BME280;60444;43.534;-5.674;2024-03-02T11:02:02;100076.38;;;10.70;100.00
72438;BME280;60444;43.534;-5.674;2024-03-02T11:04:29;100086.53;;;10.81;100.00
72438;BME280;60444;43.534;-5.674;2024-03-02T11:06:59;100064.00;;;10.80;100.00
72438;BME280;60444;43.534;-5.674;2024-03-02T11:09:28;100044.28;;;10.92;100.00
72438;BME280;60444;43.534;-5.674;2024-03-02T11:14:32;100018.38;;;10.74;100.00
72438;BME280;60444;43.534;-5.674;2024-03-02T11:17:02;100012.81;;;10.77;100.00
72438;BME280;60444;43.534;-5.674;2024-03-02T11:19:29;100015.03;;;10.85;100.00
72438;BME280;60444;43.534;-5.674;2024-03-02T11:21:56;100007.41;;;10.77;100.00
72438;BME280;60444;43.534;-5.674;2024-03-02T11:26:51;100012.72;;;10.79;100.00
72438;BME280;60444;43.534;-5.674;2024-03-02T11:32:02;100020.63;;;10.96;100.00
72438;BME280;60444;43.534;-5.674;2024-03-02T11:34:34;100011.34;;;11.00;100.00
72438;BME280;60444;43.534;-5.674;2024-03-02T11:37:03;100014.63;;;11.05;100.00
72438;BME280;60444;43.534;-5.674;2024-03-02T11:39:30;100020.91;;;11.05;100.00
72438;BME280;60444;43.534;-5.674;2024-03-02T11:41:57;100012.69;;;11.07;100.00
72438;BME280;60444;43.534;-5.674;2024-03-02T11:44:27;100032.22;;;11.12;100.00
72438;BME280;60444;43.534;-5.674;2024-03-02T11:46:59;100035.50;;;11.17;100.00
72438;BME280;60444;43.534;-5.674;2024-03-02T11:49:43;100024.69;;;11.17;100.00
72438;BME280;60444;43.534;-5.674;2024-03-02T11:52:12;100020.31;;;11.14;100.00
72438;BME280;60444;43.534;-5.674;2024-03-02T11:54:39;100020.03;;;11.19;100.00
72438;BME280;60444;43.534;-5.674;2024-03-02T11:57:06;100021.00;;;11.18;100.00
72438;BME280;60444;43.534;-5.674;2024-03-02T11:59:32;100021.88;;;11.18;100.00
72438;BME280;60444;43.534;-5.674;2024-03-02T12:01:59;100024.28;;;11.23;100.00
72438;BME280;60444;43.534;-5.674;2024-03-02T12:04:25;100041.13;;;11.28;100.00
72438;BME280;60444;43.534;-5.674;2024-03-02T12:07:03;100035.13;;;11.09;100.00
72438;BME280;60444;43.534;-5.674;2024-03-02T12:09:29;100053.38;;;11.19;100.00
72438;BME280;60444;43.534;-5.674;2024-03-02T12:12:10;100053.88;;;11.12;100.00
72438;BME280;60444;43.534;-5.674;2024-03-02T12:14:37;100076.28;;;11.14;100.00
72438;BME280;60444;43.534;-5.674;2024-03-02T12:17:05;100065.66;;;10.97;100.00
72438;BME280;60444;43.534;-5.674;2024-03-02T12:19:32;100088.28;;;11.10;100.00
72438;BME280;60444;43.534;-5.674;2024-03-02T12:21:59;100073.69;;;10.98;100.00
72438;BME280;60444;43.534;-5.674;2024-03-02T12:24:27;100070.38;;;10.79;100.00
72438;BME280;60444;43.534;-5.674;2024-03-02T12:26:56;100063.53;;;10.74;100.00
72438;BME280;60444;43.534;-5.674;2024-03-02T12:29:22;100074.16;;;10.77;100.00
72438;BME280;60444;43.534;-5.674;2024-03-02T12:31:52;100080.22;;;10.80;100.00
72438;BME280;60444;43.534;-5.674;2024-03-02T12:34:18;100079.75;;;10.74;100.00
72438;BME280;60444;43.534;-5.674;2024-03-02T12:36:46;100073.09;;;10.79;100.00
72438;BME280;60444;43.534;-5.674;2024-03-02T12:39:17;100058.97;;;10.74;100.00
72438;BME280;60444;43.534;-5.674;2024-03-02T12:41:44;100089.44;;;10.92;100.00
72438;BME280;60444;43.534;-5.674;2024-03-02T12:44:10;100069.19;;;10.69;100.00